createdAt,value
2023-02-22T00:02:29.040Z,100053.13
2023-02-22T00:05:20.047Z,100039.56
2023-02-22T00:08:10.049Z,100035.75
2023-02-22T00:11:00.691Z,100037.53
2023-02-22T00:13:50.582Z,100046.31
2023-02-22T00:16:39.114Z,100044.16
2023-02-22T00:19:30.065Z,100039.22
2023-02-22T00:22:19.166Z,100040.28
2023-02-22T00:25:07.953Z,100037.50
2023-02-22T00:27:58.164Z,100037.00
2023-02-22T00:30:48.236Z,100035.00
2023-02-22T00:33:37.456Z,100033.59
2023-02-22T00:36:25.952Z,100029.41
2023-02-22T00:39:14.398Z,100022.25
2023-02-22T00:42:03.959Z,100035.91
2023-02-22T00:44:53.804Z,100037.72
2023-02-22T00:47:42.323Z,100032.72
2023-02-22T00:50:32.231Z,100017.97
2023-02-22T00:53:20.719Z,100011.53
2023-02-22T00:56:09.158Z,100012.13
2023-02-22T00:58:57.666Z,100017.44
2023-02-22T01:01:47.594Z,100019.25
2023-02-22T01:04:36.089Z,100009.97
2023-02-22T01:07:24.609Z,100013.94
2023-02-22T01:10:14.382Z,100012.91
2023-02-22T01:13:04.863Z,99978.16
2023-02-22T01:15:53.381Z,100004.66
2023-02-22T01:18:43.207Z,100010.16
2023-02-22T01:21:31.866Z,100000.28
2023-02-22T01:24:20.531Z,99993.84
2023-02-22T01:27:10.849Z,100004.19
2023-02-22T01:29:59.296Z,99994.75
2023-02-22T01:32:47.905Z,99991.34
2023-02-22T01:35:40.864Z,99990.34
2023-02-22T01:38:29.343Z,99986.38
2023-02-22T01:41:18.564Z,99981.06
2023-02-22T01:44:29.071Z,99984.75
2023-02-22T01:47:17.569Z,99977.91
2023-02-22T01:50:07.185Z,99976.28
2023-02-22T01:52:57.130Z,99970.47
2023-02-22T01:55:46.255Z,99968.31
2023-02-22T01:58:36.697Z,99962.69
2023-02-22T02:01:26.639Z,99955.72
2023-02-22T02:04:17.620Z,99956.56
2023-02-22T02:07:07.545Z,99952.72
2023-02-22T02:10:00.010Z,99961.34
2023-02-22T02:12:50.531Z,99944.44
2023-02-22T02:15:39.258Z,99974.94
2023-02-22T02:18:28.650Z,99960.84
2023-02-22T02:21:35.543Z,99941.97
2023-02-22T02:24:39.605Z,99954.22
2023-02-22T02:27:35.162Z,99958.88
2023-02-22T02:30:44.775Z,99952.41
2023-02-22T02:33:36.167Z,99950.91
2023-02-22T02:36:31.560Z,99932.69
2023-02-22T02:39:26.957Z,99930.34
2023-02-22T02:42:18.994Z,99922.38
2023-02-22T02:45:10.959Z,99949.06
2023-02-22T02:48:00.334Z,99943.59
2023-02-22T02:50:50.910Z,99944.44
2023-02-22T02:53:41.835Z,99946.25
2023-02-22T02:56:30.935Z,99940.47
2023-02-22T02:59:27.821Z,99934.31
2023-02-22T03:02:29.181Z,99934.31
2023-02-22T03:05:34.813Z,99943.28
2023-02-22T03:08:31.327Z,99931.69
2023-02-22T03:11:21.191Z,99934.66
2023-02-22T03:14:17.721Z,99933.16
2023-02-22T03:17:13.062Z,99934.97
2023-02-22T03:20:09.668Z,99936.47
2023-02-22T03:23:01.029Z,99919.06
2023-02-22T03:25:53.307Z,99923.53
2023-02-22T03:28:44.221Z,99934.47
2023-02-22T03:31:38.242Z,99926.72
2023-02-22T03:34:29.563Z,99923.03
2023-02-22T03:37:19.589Z,99922.69
2023-02-22T03:40:13.931Z,99922.88
2023-02-22T03:43:07.673Z,99927.19
2023-02-22T03:45:56.311Z,99923.88
2023-02-22T03:48:47.812Z,99930.19
2023-02-22T03:51:36.619Z,99929.84
2023-02-22T03:54:25.122Z,99931.16
2023-02-22T03:57:17.697Z,99930.16
2023-02-22T04:00:09.992Z,99932.50
2023-02-22T04:02:58.764Z,99932.00
2023-02-22T04:05:47.435Z,99936.63
2023-02-22T04:08:36.039Z,99933.63
2023-02-22T04:11:24.622Z,99929.84
2023-02-22T04:14:14.153Z,99929.50
2023-02-22T04:17:03.994Z,99925.50
2023-02-22T04:19:52.456Z,99925.03
2023-02-22T04:22:41.224Z,99927.47
2023-02-22T04:25:29.833Z,99923.47
2023-02-22T04:28:18.435Z,99921.63
2023-02-22T04:31:07.039Z,99918.50
2023-02-22T04:33:56.904Z,99912.03
2023-02-22T04:36:45.551Z,99917.31
2023-02-22T04:39:33.974Z,99918.84
2023-02-22T04:42:22.489Z,99897.63
2023-02-22T04:45:11.473Z,99914.88
2023-02-22T04:47:59.952Z,99916.56
2023-02-22T04:50:51.197Z,99918.34
2023-02-22T04:53:39.697Z,99915.53
2023-02-22T04:56:28.497Z,99913.72
2023-02-22T04:59:17.006Z,99911.22
2023-02-22T05:02:05.944Z,99916.38
2023-02-22T05:04:54.512Z,99893.84
2023-02-22T05:07:44.412Z,99913.38
2023-02-22T05:10:32.898Z,99918.53
2023-02-22T05:13:21.429Z,99918.69
2023-02-22T05:16:09.885Z,99905.44
2023-02-22T05:18:58.403Z,99919.38
2023-02-22T05:21:46.811Z,99917.00
2023-02-22T05:24:37.116Z,99915.63
2023-02-22T05:27:25.611Z,99908.00
2023-02-22T05:30:14.584Z,99918.94
2023-02-22T05:33:03.521Z,99916.66
2023-02-22T05:35:52.047Z,99916.28
2023-02-22T05:38:43.372Z,99863.19
2023-02-22T05:41:33.408Z,99913.63
2023-02-22T05:44:22.085Z,99921.25
2023-02-22T05:47:10.605Z,99917.38
2023-02-22T05:49:59.157Z,99916.38
2023-02-22T05:52:48.598Z,99914.75
2023-02-22T05:55:37.084Z,99921.03
2023-02-22T05:58:26.923Z,99914.38
2023-02-22T06:01:15.470Z,99906.28
2023-02-22T06:04:04.255Z,99918.00
2023-02-22T06:06:53.039Z,99922.31
2023-02-22T06:09:41.575Z,99918.16
2023-02-22T06:12:31.201Z,99925.97
2023-02-22T06:15:22.188Z,99920.81
2023-02-22T06:18:11.014Z,99930.41
2023-02-22T06:21:00.093Z,99922.63
2023-02-22T06:23:48.643Z,99925.63
2023-02-22T06:26:37.128Z,99942.97
2023-02-22T06:29:25.660Z,99930.59
2023-02-22T06:32:15.676Z,99937.34
2023-02-22T06:35:04.548Z,99941.09
2023-02-22T06:37:53.219Z,99949.94
2023-02-22T06:40:41.645Z,99944.50
2023-02-22T06:43:30.176Z,99948.84
2023-02-22T06:46:19.481Z,99949.22
2023-02-22T06:49:09.311Z,99947.69
2023-02-22T06:51:57.776Z,99955.81
2023-02-22T06:54:46.264Z,99959.84
2023-02-22T06:57:34.660Z,99953.06
2023-02-22T07:00:25.191Z,99964.72
2023-02-22T07:03:15.060Z,99963.09
2023-02-22T07:06:05.675Z,99972.38
2023-02-22T07:08:54.737Z,99964.59
2023-02-22T07:11:43.670Z,99957.78
2023-02-22T07:14:32.241Z,99967.88
2023-02-22T07:17:20.699Z,99946.34
2023-02-22T07:20:11.510Z,99956.84
2023-02-22T07:23:01.580Z,99961.50
2023-02-22T07:25:50.085Z,99972.13
2023-02-22T07:28:38.544Z,99970.13
2023-02-22T07:31:29.558Z,99973.59
2023-02-22T07:34:18.287Z,99973.63
2023-02-22T07:37:06.774Z,99973.94
2023-02-22T07:39:57.227Z,99970.59
2023-02-22T07:42:56.424Z,99968.13
2023-02-22T07:45:45.573Z,99973.94
2023-02-22T07:48:34.563Z,99968.66
2023-02-22T07:51:23.043Z,99965.66
2023-02-22T07:54:11.534Z,99971.81
2023-02-22T07:57:03.385Z,99967.31
2023-02-22T07:59:51.983Z,99949.56
2023-02-22T08:02:40.418Z,99948.22
2023-02-22T08:05:29.766Z,99946.06
2023-02-22T08:08:19.922Z,99951.66
2023-02-22T08:11:08.611Z,99948.16
2023-02-22T08:13:58.464Z,99947.09
2023-02-22T08:16:47.015Z,99946.56
2023-02-22T08:19:35.511Z,99946.34
2023-02-22T08:22:24.001Z,99947.34
2023-02-22T08:25:13.008Z,99941.09
2023-02-22T08:28:03.157Z,99944.03
2023-02-22T08:30:53.375Z,99950.09
2023-02-22T08:33:42.452Z,99941.03
2023-02-22T08:36:32.926Z,99951.13
2023-02-22T08:39:21.433Z,99946.66
2023-02-22T08:42:10.349Z,99951.84
2023-02-22T08:44:58.879Z,99946.28
2023-02-22T08:47:48.911Z,99943.81
2023-02-22T08:50:38.124Z,99948.94
2023-02-22T08:53:26.659Z,99944.88
2023-02-22T08:56:15.203Z,99949.00
2023-02-22T08:59:03.700Z,99946.50
2023-02-22T09:01:52.419Z,99877.69
2023-02-22T09:04:42.329Z,99937.91
2023-02-22T09:07:31.142Z,99939.16
2023-02-22T09:10:21.487Z,99882.06
2023-02-22T09:13:09.993Z,99939.34
2023-02-22T09:15:58.530Z,99936.63
2023-02-22T09:18:47.770Z,99932.50
2023-02-22T09:21:37.671Z,99933.91
2023-02-22T09:24:26.401Z,99933.59
2023-02-22T09:27:14.948Z,99934.47
2023-02-22T09:30:04.267Z,99851.09
2023-02-22T09:32:54.402Z,99937.06
2023-02-22T09:35:46.340Z,99940.84
2023-02-22T09:38:37.111Z,99937.19
2023-02-22T09:41:34.589Z,99938.88
2023-02-22T09:44:29.699Z,99929.81
2023-02-22T09:47:20.691Z,99933.16
2023-02-22T09:50:15.629Z,99929.25
2023-02-22T09:53:07.127Z,99928.06
2023-02-22T09:55:59.804Z,99922.50
2023-02-22T09:58:52.244Z,99922.16
2023-02-22T10:01:43.433Z,99924.03
2023-02-22T10:04:41.286Z,99923.66
2023-02-22T10:07:33.167Z,99918.69
2023-02-22T10:10:24.304Z,99919.72
2023-02-22T10:13:24.434Z,99909.38
2023-02-22T10:16:17.550Z,99910.75
2023-02-22T10:19:18.707Z,99916.66
2023-02-22T10:22:22.412Z,99915.56
2023-02-22T10:25:13.732Z,99918.66
2023-02-22T10:28:05.079Z,99924.78
2023-02-22T10:30:59.038Z,99920.38
2023-02-22T10:33:49.652Z,99913.63
2023-02-22T10:36:39.213Z,99920.56
2023-02-22T10:39:30.037Z,99920.91
2023-02-22T10:42:18.581Z,99910.94
2023-02-22T10:45:15.474Z,99915.44
2023-02-22T10:48:11.647Z,99915.22
2023-02-22T10:51:02.417Z,99915.34
2023-02-22T10:53:59.490Z,99910.56
2023-02-22T10:56:48.799Z,99908.31
2023-02-22T10:59:39.191Z,99911.47
2023-02-22T11:02:30.813Z,99919.31
2023-02-22T11:05:31.161Z,99906.75
2023-02-22T11:08:30.671Z,99901.22
2023-02-22T11:11:25.074Z,99904.81
2023-02-22T11:14:14.479Z,99899.41
2023-02-22T11:17:08.214Z,99905.19
2023-02-22T11:19:56.698Z,99897.88
2023-02-22T11:22:46.582Z,99892.56
2023-02-22T11:25:37.401Z,99888.38
2023-02-22T11:28:32.824Z,99884.59
2023-02-22T11:31:23.475Z,99883.88
2023-02-22T11:34:31.521Z,99876.66
2023-02-22T11:37:30.330Z,99876.38
2023-02-22T11:40:22.747Z,99842.97
2023-02-22T11:43:16.630Z,99864.81
2023-02-22T11:46:08.274Z,99864.25
2023-02-22T11:48:59.104Z,99851.44
2023-02-22T11:51:55.031Z,99857.53
2023-02-22T11:55:10.545Z,99857.47
2023-02-22T11:58:08.743Z,99848.84
2023-02-22T12:01:01.775Z,99853.81
2023-02-22T12:04:18.451Z,99852.22
2023-02-22T12:07:27.292Z,99842.47
2023-02-22T12:10:25.078Z,99845.34
2023-02-22T12:13:27.185Z,99837.38
2023-02-22T12:16:22.637Z,99834.09
2023-02-22T12:19:20.194Z,99834.19
2023-02-22T12:22:11.524Z,99831.13
2023-02-22T12:25:10.340Z,99827.50
2023-02-22T12:28:05.750Z,99838.50
2023-02-22T12:31:08.131Z,99824.34
2023-02-22T12:34:02.051Z,99829.97
2023-02-22T12:36:53.081Z,99826.69
2023-02-22T12:39:53.537Z,99733.31
2023-02-22T12:42:48.833Z,99778.59
2023-02-22T12:45:42.076Z,99822.47
2023-02-22T12:48:41.785Z,99821.84
2023-02-22T12:51:33.901Z,99821.09
2023-02-22T12:54:25.685Z,99818.78
2023-02-22T12:57:20.197Z,99821.53
2023-02-22T13:00:17.120Z,99822.13
2023-02-22T13:03:22.294Z,99817.75
2023-02-22T13:06:23.592Z,99809.00
2023-02-22T13:09:27.778Z,99802.63
2023-02-22T13:12:19.537Z,99796.78
2023-02-22T13:15:12.768Z,99806.75
2023-02-22T13:18:06.173Z,99808.63
2023-02-22T13:21:00.844Z,99804.50
2023-02-22T13:23:55.580Z,99805.56
2023-02-22T13:26:48.121Z,99812.25
2023-02-22T13:29:39.662Z,99809.06
2023-02-22T13:32:38.419Z,99807.91
2023-02-22T13:35:37.650Z,99801.75
2023-02-22T13:39:07.373Z,99793.69
2023-02-22T13:42:14.143Z,99798.19
2023-02-22T13:45:22.124Z,99791.22
2023-02-22T13:48:18.237Z,99790.63
2023-02-22T13:51:16.901Z,99795.78
2023-02-22T13:54:09.030Z,99791.19
2023-02-22T13:56:57.978Z,99799.09
2023-02-22T13:59:48.125Z,99791.34
2023-02-22T14:02:58.565Z,99796.16
2023-02-22T14:05:51.813Z,99789.25
2023-02-22T14:08:47.033Z,99787.75
2023-02-22T14:11:44.300Z,99785.97
2023-02-22T14:14:32.768Z,99777.09
2023-02-22T14:17:27.283Z,99790.34
2023-02-22T14:20:35.282Z,99790.84
2023-02-22T14:23:35.542Z,99790.84
2023-02-22T14:26:27.509Z,99784.50
2023-02-22T14:29:18.006Z,99789.53
2023-02-22T14:32:08.280Z,99791.31
2023-02-22T14:35:00.754Z,99777.97
2023-02-22T14:37:52.167Z,99783.03
2023-02-22T14:40:41.291Z,99776.44
2023-02-22T14:43:29.973Z,99769.78
2023-02-22T14:46:23.055Z,99774.84
2023-02-22T14:49:18.879Z,99777.09
2023-02-22T14:52:19.258Z,99771.69
2023-02-22T14:55:15.515Z,99771.56
2023-02-22T14:58:09.802Z,99757.94
2023-02-22T15:00:58.367Z,99773.56
2023-02-22T15:03:51.466Z,99762.78
2023-02-22T15:06:45.012Z,99773.09
2023-02-22T15:09:37.440Z,99761.22
2023-02-22T15:12:29.983Z,99770.16
2023-02-22T15:15:22.062Z,99762.63
2023-02-22T15:18:20.042Z,99767.19
2023-02-22T15:21:13.469Z,99765.47
2023-02-22T15:24:03.618Z,99771.09
2023-02-22T15:27:01.588Z,99727.69
2023-02-22T15:29:52.363Z,99765.94
2023-02-22T15:32:56.992Z,99766.03
2023-02-22T15:35:55.298Z,99766.16
2023-02-22T15:38:49.115Z,99704.13
2023-02-22T15:41:37.625Z,99767.56
2023-02-22T15:44:28.500Z,99754.78
2023-02-22T15:47:18.891Z,99760.03
2023-02-22T15:50:21.136Z,99764.97
2023-02-22T15:53:22.675Z,99761.19
2023-02-22T15:56:16.744Z,99768.25
2023-02-22T15:59:10.273Z,99765.78
2023-02-22T16:02:00.671Z,99764.81
2023-02-22T16:04:59.283Z,99765.88
2023-02-22T16:07:50.008Z,99773.25
2023-02-22T16:10:41.214Z,99775.09
2023-02-22T16:13:34.373Z,99779.53
2023-02-22T16:16:24.351Z,99776.69
2023-02-22T16:19:32.778Z,99773.44
2023-02-22T16:22:28.046Z,99779.97
2023-02-22T16:25:27.370Z,99772.88
2023-02-22T16:28:30.704Z,99773.44
2023-02-22T16:31:21.854Z,99776.97
2023-02-22T16:34:10.905Z,99776.19
2023-02-22T16:37:01.359Z,99783.31
2023-02-22T16:39:51.718Z,99779.56
2023-02-22T16:42:40.237Z,99775.56
2023-02-22T16:45:28.861Z,99783.47
2023-02-22T16:48:20.012Z,99782.97
2023-02-22T16:51:10.788Z,99787.06
2023-02-22T16:54:00.642Z,99792.94
2023-02-22T16:56:49.122Z,99783.97
2023-02-22T16:59:40.078Z,99785.81
2023-02-22T17:02:28.540Z,99791.31
2023-02-22T17:05:17.755Z,99794.47
2023-02-22T17:08:06.977Z,99795.50
2023-02-22T17:10:57.525Z,99788.34
2023-02-22T17:13:51.470Z,99793.41
2023-02-22T17:16:39.923Z,99793.84
2023-02-22T17:19:28.783Z,99805.97
2023-02-22T17:22:18.709Z,99806.13
2023-02-22T17:25:20.346Z,99803.03
2023-02-22T17:28:10.677Z,99806.56
2023-02-22T17:31:01.620Z,99798.94
2023-02-22T17:33:51.337Z,99812.97
2023-02-22T17:36:40.167Z,99819.91
2023-02-22T17:39:28.704Z,99819.56
2023-02-22T17:42:17.198Z,99818.06
2023-02-22T17:45:08.983Z,99819.69
2023-02-22T17:47:59.074Z,99817.22
2023-02-22T17:50:49.313Z,99817.88
2023-02-22T17:53:38.403Z,99824.09
2023-02-22T17:56:26.901Z,99812.56
2023-02-22T17:59:15.650Z,99824.91
2023-02-22T18:02:05.660Z,99824.97
2023-02-22T18:04:54.280Z,99825.63
2023-02-22T18:07:42.782Z,99810.66
2023-02-22T18:10:31.432Z,99823.88
2023-02-22T18:13:19.885Z,99815.66
2023-02-22T18:16:09.802Z,99814.41
2023-02-22T18:19:01.541Z,99821.06
2023-02-22T18:21:50.157Z,99822.69
2023-02-22T18:24:38.628Z,99821.06
2023-02-22T18:27:30.128Z,99833.06
2023-02-22T18:30:18.692Z,99822.97
2023-02-22T18:33:11.102Z,99832.72
2023-02-22T18:36:00.910Z,99824.47
2023-02-22T18:38:50.722Z,99825.13
2023-02-22T18:41:39.482Z,99817.50
2023-02-22T18:44:28.155Z,99827.84
2023-02-22T18:47:16.726Z,99818.97
2023-02-22T18:50:05.645Z,99817.13
2023-02-22T18:52:55.661Z,99825.53
2023-02-22T18:55:44.158Z,99827.03
2023-02-22T18:58:33.339Z,99782.56
2023-02-22T19:01:22.042Z,99787.94
2023-02-22T19:04:12.651Z,99785.25
2023-02-22T19:07:01.175Z,99803.94
2023-02-22T19:09:51.658Z,99816.53
2023-02-22T19:12:40.208Z,99817.56
2023-02-22T19:15:28.676Z,99818.97
2023-02-22T19:18:17.179Z,99809.94
2023-02-22T19:21:08.926Z,99815.50
2023-02-22T19:23:57.634Z,99814.06
2023-02-22T19:26:50.678Z,99815.31
2023-02-22T19:29:39.926Z,99815.94
2023-02-22T19:32:28.535Z,99813.31
2023-02-22T19:35:26.145Z,99822.81
2023-02-22T19:38:15.429Z,99808.34
2023-02-22T19:41:10.238Z,99813.13
2023-02-22T19:44:01.867Z,99810.22
2023-02-22T19:46:50.342Z,99818.50
2023-02-22T19:49:40.964Z,99816.66
2023-02-22T19:52:29.882Z,99812.75
2023-02-22T19:55:18.346Z,99777.38
2023-02-22T19:58:06.866Z,99818.78
2023-02-22T20:00:56.778Z,99813.81
2023-02-22T20:03:45.779Z,99801.09
2023-02-22T20:06:40.114Z,99809.72
2023-02-22T20:09:36.224Z,99806.22
2023-02-22T20:12:24.719Z,99812.25
2023-02-22T20:15:13.591Z,99807.88
2023-02-22T20:18:03.417Z,99828.31
2023-02-22T20:20:51.925Z,99820.22
2023-02-22T20:23:44.278Z,99816.97
2023-02-22T20:26:37.234Z,99815.91
2023-02-22T20:29:29.624Z,99826.22
2023-02-22T20:32:18.552Z,99819.59
2023-02-22T20:35:09.433Z,99821.44
2023-02-22T20:37:57.968Z,99830.53
2023-02-22T20:40:46.795Z,99827.22
2023-02-22T20:43:36.441Z,99828.47
2023-02-22T20:46:26.639Z,99831.97
2023-02-22T20:49:17.074Z,99835.28
2023-02-22T20:52:06.960Z,99836.53
2023-02-22T20:54:56.318Z,99836.75
2023-02-22T20:57:44.773Z,99836.28
2023-02-22T21:00:33.277Z,99832.31
2023-02-22T21:03:21.974Z,99831.69
2023-02-22T21:06:11.791Z,99833.25
2023-02-22T21:09:02.768Z,99830.69
2023-02-22T21:11:51.393Z,99833.75
2023-02-22T21:14:40.443Z,99839.28
2023-02-22T21:17:30.738Z,99834.06
2023-02-22T21:20:21.924Z,99832.78
2023-02-22T21:23:11.129Z,99831.75
2023-02-22T21:26:01.004Z,99828.06
2023-02-22T21:28:51.728Z,99836.31
2023-02-22T21:31:40.531Z,99826.84
2023-02-22T21:34:29.726Z,99828.91
2023-02-22T21:37:18.249Z,99845.50
2023-02-22T21:40:11.882Z,99834.38
2023-02-22T21:43:01.959Z,99834.03
2023-02-22T21:45:50.687Z,99832.41
2023-02-22T21:48:39.810Z,99836.97
2023-02-22T21:51:31.864Z,99822.75
2023-02-22T21:54:20.683Z,99830.56
2023-02-22T21:57:09.732Z,99834.94
2023-02-22T21:59:59.672Z,99826.72
2023-02-22T22:02:51.809Z,99828.16
2023-02-22T22:05:45.156Z,99795.44
2023-02-22T22:08:36.045Z,99800.19
2023-02-22T22:11:25.212Z,99824.13
2023-02-22T22:14:14.541Z,99827.38
2023-02-22T22:17:05.876Z,99830.25
2023-02-22T22:19:54.438Z,99821.38
2023-02-22T22:22:45.324Z,99825.13
2023-02-22T22:25:38.076Z,99828.03
2023-02-22T22:28:26.899Z,99822.28
2023-02-22T22:31:17.316Z,99822.44
2023-02-22T22:34:07.669Z,99826.81
2023-02-22T22:36:58.035Z,99824.75
2023-02-22T22:39:46.535Z,99826.59
2023-02-22T22:42:34.977Z,99815.50
2023-02-22T22:45:23.472Z,99824.13
2023-02-22T22:48:14.912Z,99824.34
2023-02-22T22:51:09.346Z,99826.22
2023-02-22T22:54:00.301Z,99786.47
2023-02-22T22:56:49.019Z,99825.00
2023-02-22T22:59:37.578Z,99810.97
2023-02-22T23:02:26.127Z,99813.03
2023-02-22T23:05:17.285Z,99821.50
2023-02-22T23:08:10.628Z,99817.38
2023-02-22T23:10:59.201Z,99823.97
2023-02-22T23:13:47.677Z,99816.13
2023-02-22T23:16:36.347Z,99821.50
2023-02-22T23:19:24.913Z,99824.38
2023-02-22T23:22:14.344Z,99819.44
2023-02-22T23:25:04.717Z,99817.19
2023-02-22T23:27:54.706Z,99819.22
2023-02-22T23:30:43.227Z,99817.41
2023-02-22T23:33:32.047Z,99819.47
2023-02-22T23:36:21.049Z,99813.28
2023-02-22T23:39:09.529Z,99812.50
2023-02-22T23:42:00.010Z,99805.88
2023-02-22T23:44:49.145Z,99823.41
2023-02-22T23:47:38.462Z,99813.53
2023-02-22T23:50:28.957Z,99808.38
2023-02-22T23:53:17.476Z,99813.53
2023-02-22T23:56:10.027Z,99796.03
2023-02-22T23:58:59.966Z,99813.13
